createdAt,value
2022-10-11T00:00:09.489Z,2.25
2022-10-11T00:01:12.246Z,2.37
2022-10-11T00:02:15.207Z,2.17
2022-10-11T00:03:18.176Z,2.40
2022-10-11T00:04:21.176Z,2.17
2022-10-11T00:05:24.588Z,2.30
2022-10-11T00:06:27.730Z,2.35
2022-10-11T00:07:30.405Z,2.15
2022-10-11T00:08:33.649Z,2.05
2022-10-11T00:09:36.358Z,2.05
2022-10-11T00:10:39.799Z,2.10
2022-10-11T00:11:42.592Z,2.00
2022-10-11T00:12:45.508Z,1.85
2022-10-11T00:13:48.471Z,1.70
2022-10-11T00:14:51.167Z,2.08
2022-10-11T00:15:54.024Z,2.22
2022-10-11T00:16:56.640Z,1.98
2022-10-11T00:18:04.528Z,2.15
2022-10-11T00:19:08.010Z,2.17
2022-10-11T00:20:12.243Z,2.20
2022-10-11T00:21:16.756Z,2.20
2022-10-11T00:22:19.594Z,2.05
2022-10-11T00:23:22.427Z,2.55
2022-10-11T00:24:25.098Z,2.50
2022-10-11T00:25:27.720Z,2.30
2022-10-11T00:26:31.868Z,2.28
2022-10-11T00:27:35.874Z,3.60
2022-10-11T00:28:38.994Z,2.10
2022-10-11T00:29:41.648Z,3.08
2022-10-11T00:30:44.347Z,2.10
2022-10-11T00:31:47.025Z,2.20
2022-10-11T00:32:50.667Z,2.30
2022-10-11T00:33:57.897Z,2.65
2022-10-11T00:35:04.992Z,2.42
2022-10-11T00:36:08.973Z,2.58
2022-10-11T00:37:11.860Z,3.20
2022-10-11T00:38:14.917Z,2.20
2022-10-11T00:39:18.471Z,2.45
2022-10-11T00:40:21.458Z,2.58
2022-10-11T00:41:24.312Z,2.53
2022-10-11T00:42:27.174Z,2.50
2022-10-11T00:43:32.349Z,2.30
2022-10-11T00:44:38.964Z,2.22
2022-10-11T00:45:56.950Z,2.17
2022-10-11T00:47:06.543Z,2.25
2022-10-11T00:48:20.385Z,2.60
2022-10-11T00:49:41.109Z,2.30
2022-10-11T00:50:44.031Z,1.83
2022-10-11T00:51:57.544Z,2.00
2022-10-11T00:53:03.522Z,1.92
2022-10-11T00:54:08.114Z,2.40
2022-10-11T00:55:14.676Z,2.45
2022-10-11T00:56:28.157Z,2.22
2022-10-11T00:57:34.130Z,2.17
2022-10-11T00:58:39.004Z,1.75
2022-10-11T00:59:46.910Z,2.12
2022-10-11T01:00:51.096Z,1.92
2022-10-11T01:01:53.803Z,2.03
2022-10-11T01:02:57.048Z,2.45
2022-10-11T01:03:59.837Z,2.03
2022-10-11T01:05:27.645Z,2.25
2022-10-11T01:06:26.004Z,2.40
2022-10-11T01:07:31.564Z,1.58
2022-10-11T01:08:34.950Z,1.95
2022-10-11T01:09:37.473Z,2.25
2022-10-11T01:10:41.952Z,1.90
2022-10-11T01:11:47.980Z,1.87
2022-10-11T01:13:08.493Z,2.35
2022-10-11T01:14:23.694Z,1.90
2022-10-11T01:15:46.241Z,1.73
2022-10-11T01:17:13.474Z,1.70
2022-10-11T01:18:30.833Z,1.67
2022-10-11T01:19:45.764Z,1.80
2022-10-11T01:20:53.842Z,1.52
2022-10-11T01:22:18.282Z,2.08
2022-10-11T01:23:35.987Z,2.03
2022-10-11T01:25:16.870Z,1.23
2022-10-11T01:26:37.822Z,1.62
2022-10-11T01:29:31.572Z,1.37
2022-10-11T01:31:51.870Z,0.93
2022-10-11T01:33:09.470Z,1.50
2022-10-11T01:34:14.741Z,1.87
2022-10-11T01:35:47.321Z,1.92
2022-10-11T01:37:05.517Z,1.62
2022-10-11T01:38:21.851Z,1.45
2022-10-11T01:39:39.068Z,1.30
2022-10-11T01:40:53.103Z,1.65
2022-10-11T01:42:00.351Z,2.22
2022-10-11T01:43:06.472Z,1.80
2022-10-11T01:44:11.437Z,1.62
2022-10-11T01:45:18.928Z,1.60
2022-10-11T01:46:21.982Z,2.47
2022-10-11T01:47:29.824Z,1.50
2022-10-11T01:48:32.578Z,1.67
2022-10-11T01:49:35.390Z,1.73
2022-10-11T01:50:53.161Z,1.77
2022-10-11T01:52:00.094Z,1.62
2022-10-11T01:53:16.999Z,2.30
2022-10-11T01:55:08.793Z,2.20
2022-10-11T01:56:30.241Z,2.33
2022-10-11T01:58:07.750Z,2.12
2022-10-11T01:59:23.851Z,1.62
2022-10-11T02:00:34.635Z,1.80
2022-10-11T02:03:06.700Z,1.67
2022-10-11T02:04:22.003Z,2.05
2022-10-11T02:05:51.084Z,1.50
2022-10-11T02:07:16.567Z,1.60
2022-10-11T02:08:30.411Z,1.85
2022-10-11T02:10:01.844Z,1.80
2022-10-11T02:11:11.773Z,1.67
2022-10-11T02:12:21.305Z,1.75
2022-10-11T02:13:39.810Z,1.90
2022-10-11T02:14:47.279Z,2.15
2022-10-11T02:15:51.610Z,1.90
2022-10-11T02:17:08.092Z,1.60
2022-10-11T02:18:16.949Z,1.80
2022-10-11T02:19:25.020Z,1.52
2022-10-11T02:20:31.539Z,1.90
2022-10-11T02:21:37.664Z,1.55
2022-10-11T02:22:45.843Z,1.70
2022-10-11T02:24:00.629Z,1.87
2022-10-11T02:25:09.542Z,1.55
2022-10-11T02:26:14.692Z,2.15
2022-10-11T02:27:23.380Z,2.12
2022-10-11T02:28:31.033Z,2.08
2022-10-11T02:29:38.236Z,2.08
2022-10-11T02:30:43.980Z,1.90
2022-10-11T02:31:48.561Z,2.10
2022-10-11T02:32:52.946Z,2.08
2022-10-11T02:34:06.342Z,1.85
2022-10-11T02:35:10.225Z,1.62
2022-10-11T02:36:30.411Z,1.45
2022-10-11T02:37:55.584Z,2.03
2022-10-11T02:39:04.368Z,1.55
2022-10-11T02:40:14.353Z,1.33
2022-10-11T02:41:32.567Z,1.50
2022-10-11T02:42:44.647Z,1.40
2022-10-11T02:44:00.482Z,2.00
2022-10-11T02:45:10.449Z,1.87
2022-10-11T02:46:16.613Z,1.77
2022-10-11T02:47:20.529Z,1.80
2022-10-11T02:48:25.288Z,1.60
2022-10-11T02:49:30.007Z,1.52
2022-10-11T02:50:32.659Z,1.27
2022-10-11T02:51:36.367Z,1.77
2022-10-11T02:52:39.011Z,2.08
2022-10-11T02:53:41.655Z,1.77
2022-10-11T02:54:44.247Z,1.70
2022-10-11T02:55:48.848Z,2.30
2022-10-11T02:56:51.599Z,1.52
2022-10-11T02:57:54.409Z,1.77
2022-10-11T02:58:57.095Z,2.22
2022-10-11T03:00:00.196Z,1.90
2022-10-11T03:01:02.807Z,1.98
2022-10-11T03:02:05.373Z,1.98
2022-10-11T03:03:08.061Z,1.50
2022-10-11T03:04:10.766Z,1.30
2022-10-11T03:05:13.410Z,1.80
2022-10-11T03:06:16.091Z,1.37
2022-10-11T03:07:18.747Z,2.10
2022-10-11T03:08:21.506Z,2.00
2022-10-11T03:09:24.076Z,1.95
2022-10-11T03:10:26.754Z,1.73
2022-10-11T03:11:29.315Z,1.67
2022-10-11T03:12:32.033Z,1.67
2022-10-11T03:13:34.706Z,1.42
2022-10-11T03:14:37.578Z,1.92
2022-10-11T03:15:40.213Z,1.87
2022-10-11T03:16:42.788Z,1.67
2022-10-11T03:17:45.457Z,1.70
2022-10-11T03:18:48.131Z,1.95
2022-10-11T03:19:50.759Z,1.70
2022-10-11T03:20:53.332Z,2.25
2022-10-11T03:21:55.971Z,1.48
2022-10-11T03:22:58.673Z,1.83
2022-10-11T03:24:01.474Z,2.22
2022-10-11T03:25:04.973Z,2.33
2022-10-11T03:26:08.332Z,2.33
2022-10-11T03:27:15.002Z,1.98
2022-10-11T03:28:17.763Z,1.85
2022-10-11T03:29:20.557Z,2.20
2022-10-11T03:30:23.209Z,2.20
2022-10-11T03:31:26.001Z,1.98
2022-10-11T03:32:29.773Z,2.20
2022-10-11T03:33:32.464Z,1.70
2022-10-11T03:34:35.122Z,2.22
2022-10-11T03:35:40.912Z,1.73
2022-10-11T03:36:43.484Z,1.70
2022-10-11T03:37:46.197Z,2.35
2022-10-11T03:38:48.797Z,2.15
2022-10-11T03:39:51.491Z,2.92
2022-10-11T03:40:54.150Z,1.90
2022-10-11T03:41:56.691Z,2.03
2022-10-11T03:42:59.326Z,2.42
2022-10-11T03:44:01.947Z,1.95
2022-10-11T03:45:08.357Z,2.70
2022-10-11T03:46:11.108Z,2.08
2022-10-11T03:47:13.671Z,3.15
2022-10-11T03:48:16.336Z,2.42
2022-10-11T03:49:18.977Z,2.00
2022-10-11T03:50:27.871Z,2.05
2022-10-11T03:51:31.439Z,2.10
2022-10-11T03:52:34.703Z,1.87
2022-10-11T03:53:37.388Z,2.08
2022-10-11T03:54:40.038Z,2.03
2022-10-11T03:55:42.798Z,1.80
2022-10-11T03:56:45.738Z,1.65
2022-10-11T03:57:51.314Z,2.20
2022-10-11T03:58:53.978Z,1.80
2022-10-11T03:59:56.690Z,2.08
2022-10-11T04:01:00.009Z,1.77
2022-10-11T04:02:02.899Z,2.03
2022-10-11T04:03:05.493Z,2.08
2022-10-11T04:04:08.128Z,1.75
2022-10-11T04:05:12.732Z,1.98
2022-10-11T04:06:15.500Z,2.53
2022-10-11T04:07:18.104Z,1.95
2022-10-11T04:08:21.365Z,2.60
2022-10-11T04:09:27.939Z,2.08
2022-10-11T04:10:31.667Z,1.70
2022-10-11T04:11:34.399Z,1.87
2022-10-11T04:12:38.690Z,2.75
2022-10-11T04:13:41.352Z,1.85
2022-10-11T04:14:43.909Z,2.03
2022-10-11T04:15:47.458Z,2.40
2022-10-11T04:16:50.227Z,2.20
2022-10-11T04:17:53.005Z,2.00
2022-10-11T04:18:55.930Z,2.28
2022-10-11T04:19:58.515Z,2.40
2022-10-11T04:21:01.142Z,2.08
2022-10-11T04:22:04.925Z,3.12
2022-10-11T04:23:07.587Z,1.75
2022-10-11T04:24:11.639Z,1.77
2022-10-11T04:25:14.375Z,2.50
2022-10-11T04:26:16.953Z,1.60
2022-10-11T04:27:19.616Z,2.20
2022-10-11T04:28:22.281Z,2.45
2022-10-11T04:29:30.070Z,2.00
2022-10-11T04:30:35.361Z,2.03
2022-10-11T04:31:37.984Z,2.10
2022-10-11T04:32:40.585Z,1.45
2022-10-11T04:33:43.609Z,1.87
2022-10-11T04:34:46.231Z,2.28
2022-10-11T04:35:49.038Z,2.28
2022-10-11T04:36:51.677Z,1.83
2022-10-11T04:37:54.311Z,1.92
2022-10-11T04:38:56.970Z,2.50
2022-10-11T04:39:59.714Z,1.80
2022-10-11T04:41:13.922Z,2.17
2022-10-11T04:42:16.726Z,2.25
2022-10-11T04:43:19.552Z,2.05
2022-10-11T04:44:22.069Z,1.95
2022-10-11T04:45:24.746Z,1.70
2022-10-11T04:46:28.135Z,1.60
2022-10-11T04:47:30.811Z,1.98
2022-10-11T04:48:33.903Z,2.25
2022-10-11T04:49:36.721Z,2.65
2022-10-11T04:50:39.254Z,2.10
2022-10-11T04:51:41.765Z,1.85
2022-10-11T04:52:44.343Z,2.42
2022-10-11T04:53:48.346Z,3.12
2022-10-11T04:54:50.903Z,2.60
2022-10-11T04:56:02.635Z,2.10
2022-10-11T04:57:05.753Z,2.50
2022-10-11T04:58:08.416Z,2.53
2022-10-11T04:59:11.237Z,2.08
2022-10-11T05:00:15.330Z,2.28
2022-10-11T05:01:17.946Z,2.20
2022-10-11T05:02:20.560Z,3.15
2022-10-11T05:03:23.816Z,2.53
2022-10-11T05:04:26.423Z,2.22
2022-10-11T05:05:29.055Z,2.42
2022-10-11T05:06:31.794Z,2.20
2022-10-11T05:07:34.273Z,2.45
2022-10-11T05:08:37.017Z,3.47
2022-10-11T05:09:39.675Z,2.28
2022-10-11T05:10:42.364Z,2.65
2022-10-11T05:11:44.904Z,3.58
2022-10-11T05:12:47.638Z,2.17
2022-10-11T05:13:50.441Z,2.53
2022-10-11T05:14:53.081Z,2.30
2022-10-11T05:15:56.052Z,2.70
2022-10-11T05:16:58.793Z,2.35
2022-10-11T05:18:01.791Z,2.62
2022-10-11T05:19:04.418Z,2.22
2022-10-11T05:20:07.762Z,2.20
2022-10-11T05:21:20.807Z,2.30
2022-10-11T05:22:23.473Z,2.15
2022-10-11T05:23:26.178Z,2.20
2022-10-11T05:24:28.729Z,2.62
2022-10-11T05:25:31.630Z,2.42
2022-10-11T05:26:34.536Z,2.83
2022-10-11T05:27:37.279Z,2.03
2022-10-11T05:28:41.975Z,2.25
2022-10-11T05:29:44.558Z,2.72
2022-10-11T05:30:47.083Z,2.55
2022-10-11T05:31:49.707Z,2.00
2022-10-11T05:32:52.385Z,2.53
2022-10-11T05:33:55.283Z,2.20
2022-10-11T05:34:57.891Z,2.40
2022-10-11T05:36:00.881Z,2.22
2022-10-11T05:37:04.513Z,2.37
2022-10-11T05:38:07.373Z,2.30
2022-10-11T05:39:09.912Z,2.67
2022-10-11T05:40:13.130Z,2.15
2022-10-11T05:41:16.200Z,2.40
2022-10-11T05:42:18.904Z,2.37
2022-10-11T05:43:21.576Z,2.42
2022-10-11T05:44:24.189Z,1.98
2022-10-11T05:45:26.970Z,2.37
2022-10-11T05:46:29.626Z,2.17
2022-10-11T05:47:32.910Z,2.67
2022-10-11T05:48:35.583Z,2.20
2022-10-11T05:49:38.387Z,2.53
2022-10-11T05:50:41.030Z,2.25
2022-10-11T05:51:43.717Z,2.60
2022-10-11T05:52:46.297Z,2.70
2022-10-11T05:53:49.442Z,1.80
2022-10-11T05:54:52.065Z,2.10
2022-10-11T05:55:55.055Z,2.37
2022-10-11T05:56:57.710Z,2.42
2022-10-11T05:58:00.280Z,2.25
2022-10-11T05:59:04.499Z,2.03
2022-10-11T06:00:07.848Z,2.17
2022-10-11T06:01:23.752Z,1.40
2022-10-11T06:02:27.801Z,1.65
2022-10-11T06:03:30.796Z,2.53
2022-10-11T06:04:37.230Z,2.87
2022-10-11T06:05:40.222Z,1.92
2022-10-11T06:06:42.835Z,3.08
2022-10-11T06:07:45.423Z,2.30
2022-10-11T06:08:48.499Z,3.05
2022-10-11T06:09:51.737Z,2.60
2022-10-11T06:10:54.440Z,2.78
2022-10-11T06:11:57.637Z,2.03
2022-10-11T06:13:00.789Z,2.25
2022-10-11T06:14:03.363Z,2.47
2022-10-11T06:15:06.779Z,4.22
2022-10-11T06:16:10.283Z,4.55
2022-10-11T06:17:13.547Z,3.08
2022-10-11T06:18:16.358Z,3.12
2022-10-11T06:19:19.297Z,4.15
2022-10-11T06:20:22.068Z,3.12
2022-10-11T06:21:25.227Z,2.40
2022-10-11T06:22:27.730Z,3.00
2022-10-11T06:23:30.473Z,3.12
2022-10-11T06:24:33.155Z,2.87
2022-10-11T06:25:35.943Z,2.95
2022-10-11T06:26:38.826Z,3.55
2022-10-11T06:27:41.540Z,2.78
2022-10-11T06:28:44.613Z,2.30
2022-10-11T06:29:47.367Z,2.20
2022-10-11T06:30:49.994Z,2.42
2022-10-11T06:31:52.630Z,3.87
2022-10-11T06:32:55.301Z,3.72
2022-10-11T06:33:59.522Z,3.15
2022-10-11T06:35:03.619Z,3.60
2022-10-11T06:36:14.287Z,4.32
2022-10-11T06:38:19.819Z,2.72
2022-10-11T06:39:22.426Z,2.95
2022-10-11T06:40:25.238Z,3.72
2022-10-11T06:41:30.366Z,3.80
2022-10-11T06:42:33.093Z,3.78
2022-10-11T06:43:35.960Z,2.85
2022-10-11T06:44:39.518Z,2.95
2022-10-11T06:45:42.377Z,2.42
2022-10-11T06:46:48.979Z,1.83
2022-10-11T06:47:51.590Z,3.22
2022-10-11T06:48:56.584Z,2.12
2022-10-11T06:49:59.450Z,2.72
2022-10-11T06:51:02.167Z,2.92
2022-10-11T06:52:05.223Z,2.53
2022-10-11T06:53:08.245Z,2.53
2022-10-11T06:54:14.184Z,2.47
2022-10-11T06:55:17.028Z,2.12
2022-10-11T06:56:20.027Z,2.85
2022-10-11T06:57:22.946Z,3.28
2022-10-11T06:58:25.636Z,2.53
2022-10-11T06:59:28.356Z,2.80
2022-10-11T07:00:31.173Z,2.33
2022-10-11T07:01:33.889Z,2.78
2022-10-11T07:02:36.550Z,2.92
2022-10-11T07:03:40.079Z,3.47
2022-10-11T07:04:42.692Z,2.87
2022-10-11T07:05:46.126Z,2.90
2022-10-11T07:06:48.821Z,3.15
2022-10-11T07:07:51.647Z,2.92
2022-10-11T07:08:54.751Z,2.37
2022-10-11T07:09:57.413Z,2.62
2022-10-11T07:11:02.121Z,3.10
2022-10-11T07:12:04.938Z,3.17
2022-10-11T07:13:07.613Z,2.53
2022-10-11T07:14:10.591Z,2.78
2022-10-11T07:15:13.399Z,2.35
2022-10-11T07:16:16.288Z,2.65
2022-10-11T07:17:22.138Z,3.00
2022-10-11T07:18:25.204Z,3.22
2022-10-11T07:19:28.130Z,2.35
2022-10-11T07:20:30.680Z,2.33
2022-10-11T07:21:34.625Z,2.12
2022-10-11T07:22:38.696Z,1.87
2022-10-11T07:23:42.325Z,2.40
2022-10-11T07:24:44.939Z,2.30
2022-10-11T07:25:48.234Z,2.28
2022-10-11T07:26:51.188Z,1.87
2022-10-11T07:27:53.935Z,2.33
2022-10-11T07:28:58.264Z,2.40
2022-10-11T07:30:01.017Z,1.67
2022-10-11T07:31:10.134Z,1.95
2022-10-11T07:32:12.852Z,2.75
2022-10-11T07:33:15.694Z,2.62
2022-10-11T07:34:20.420Z,2.42
2022-10-11T07:35:23.018Z,2.28
2022-10-11T07:36:25.847Z,1.98
2022-10-11T07:37:28.491Z,1.98
2022-10-11T07:38:34.730Z,2.53
2022-10-11T07:39:39.315Z,2.35
2022-10-11T07:40:44.297Z,2.45
2022-10-11T07:41:46.978Z,2.15
2022-10-11T07:42:49.547Z,2.17
2022-10-11T07:43:52.330Z,1.85
2022-10-11T07:44:55.011Z,2.22
2022-10-11T07:46:00.730Z,2.28
2022-10-11T07:47:05.750Z,2.12
2022-10-11T07:48:12.309Z,2.20
2022-10-11T07:49:15.017Z,2.35
2022-10-11T07:50:17.789Z,2.03
2022-10-11T07:51:22.895Z,2.03
2022-10-11T07:52:25.566Z,2.53
2022-10-11T07:53:28.283Z,2.00
2022-10-11T07:54:31.027Z,2.15
2022-10-11T07:55:40.518Z,2.42
2022-10-11T07:56:43.333Z,2.08
2022-10-11T07:57:46.068Z,2.03
2022-10-11T07:58:54.896Z,2.05
2022-10-11T07:59:57.475Z,2.40
2022-10-11T08:01:00.285Z,1.92
2022-10-11T08:02:03.071Z,2.28
2022-10-11T08:03:06.942Z,2.30
2022-10-11T08:04:10.460Z,2.22
2022-10-11T08:05:13.319Z,2.50
2022-10-11T08:06:20.065Z,2.42
2022-10-11T08:07:22.731Z,2.25
2022-10-11T08:08:25.450Z,2.45
2022-10-11T08:09:28.212Z,2.35
2022-10-11T08:10:31.018Z,1.90
2022-10-11T08:11:37.182Z,2.25
2022-10-11T08:12:39.967Z,2.37
2022-10-11T08:13:42.507Z,2.55
2022-10-11T08:14:45.137Z,2.35
2022-10-11T08:15:47.630Z,2.08
2022-10-11T08:16:54.062Z,2.70
2022-10-11T08:17:56.609Z,2.72
2022-10-11T08:18:59.243Z,2.50
2022-10-11T08:20:01.928Z,2.35
2022-10-11T08:21:09.207Z,2.58
2022-10-11T08:22:11.854Z,3.00
2022-10-11T08:23:16.989Z,2.80
2022-10-11T08:24:21.107Z,2.45
2022-10-11T08:25:23.723Z,2.87
2022-10-11T08:26:26.336Z,2.53
2022-10-11T08:27:28.892Z,2.12
2022-10-11T08:28:32.685Z,2.85
2022-10-11T08:29:35.362Z,2.50
2022-10-11T08:30:38.014Z,2.80
2022-10-11T08:31:40.802Z,2.92
2022-10-11T08:32:43.509Z,2.40
2022-10-11T08:33:46.545Z,2.85
2022-10-11T08:34:49.572Z,2.40
2022-10-11T08:35:53.507Z,2.80
2022-10-11T08:36:56.020Z,2.40
2022-10-11T08:37:58.669Z,2.67
2022-10-11T08:39:01.277Z,2.42
2022-10-11T08:40:08.762Z,3.33
2022-10-11T08:41:31.613Z,2.97
2022-10-11T08:42:48.066Z,2.97
2022-10-11T08:44:41.427Z,2.90
2022-10-11T08:45:56.831Z,2.95
2022-10-11T08:47:09.850Z,2.30
2022-10-11T08:48:30.339Z,3.17
2022-10-11T08:49:35.762Z,2.70
2022-10-11T08:50:38.908Z,2.65
2022-10-11T08:52:02.823Z,2.62
2022-10-11T08:53:16.412Z,3.08
2022-10-11T08:54:43.371Z,2.97
2022-10-11T08:55:54.600Z,2.90
2022-10-11T08:56:57.390Z,2.95
2022-10-11T08:58:01.156Z,3.37
2022-10-11T08:59:12.413Z,2.90
2022-10-11T09:00:17.497Z,2.80
2022-10-11T09:01:26.528Z,3.15
2022-10-11T09:03:03.047Z,2.97
2022-10-11T09:04:03.781Z,2.62
2022-10-11T09:05:10.733Z,2.85
2022-10-11T09:06:24.580Z,3.12
2022-10-11T09:07:38.528Z,3.75
2022-10-11T09:09:02.734Z,3.08
2022-10-11T09:10:26.519Z,3.22
2022-10-11T09:11:55.589Z,2.72
2022-10-11T09:13:12.049Z,3.28
2022-10-11T09:14:40.895Z,3.20
2022-10-11T09:15:55.663Z,3.12
2022-10-11T09:17:13.840Z,3.40
2022-10-11T09:18:41.359Z,3.58
2022-10-11T09:19:56.200Z,3.50
2022-10-11T09:21:28.561Z,3.75
2022-10-11T09:22:58.260Z,3.10
2022-10-11T09:24:13.180Z,3.67
2022-10-11T09:25:47.085Z,3.67
2022-10-11T09:26:59.731Z,3.05
2022-10-11T09:28:31.186Z,3.55
2022-10-11T09:30:02.601Z,3.10
2022-10-11T09:31:10.265Z,3.60
2022-10-11T09:32:16.832Z,4.75
2022-10-11T09:33:48.128Z,3.67
2022-10-11T09:35:01.023Z,3.22
2022-10-11T09:36:31.698Z,3.75
2022-10-11T09:37:42.688Z,4.10
2022-10-11T09:38:52.564Z,3.92
2022-10-11T09:40:25.733Z,3.03
2022-10-11T09:41:48.944Z,3.33
2022-10-11T09:42:51.539Z,3.55
2022-10-11T09:43:54.452Z,3.28
2022-10-11T09:44:57.677Z,3.40
2022-10-11T09:46:00.286Z,3.10
2022-10-11T09:47:04.420Z,4.15
2022-10-11T09:48:07.849Z,3.85
2022-10-11T09:49:14.756Z,4.03
2022-10-11T09:50:23.541Z,3.45
2022-10-11T09:51:28.390Z,3.70
2022-10-11T09:52:31.219Z,3.58
2022-10-11T09:53:59.462Z,4.00
2022-10-11T09:55:03.096Z,3.90
2022-10-11T09:56:06.457Z,3.80
2022-10-11T09:57:39.751Z,3.47
2022-10-11T09:58:42.688Z,3.95
2022-10-11T10:00:02.939Z,3.97
2022-10-11T10:01:10.202Z,4.07
2022-10-11T10:02:12.897Z,3.40
2022-10-11T10:03:46.399Z,3.10
2022-10-11T10:04:59.982Z,3.30
2022-10-11T10:06:24.113Z,3.08
2022-10-11T10:07:27.750Z,3.62
2022-10-11T10:08:31.151Z,3.62
2022-10-11T10:09:33.650Z,3.83
2022-10-11T10:10:41.313Z,3.65
2022-10-11T10:11:44.082Z,3.47
2022-10-11T10:12:55.050Z,3.80
2022-10-11T10:13:57.729Z,4.35
2022-10-11T10:15:23.104Z,3.28
2022-10-11T10:16:30.058Z,3.30
2022-10-11T10:17:33.381Z,3.50
2022-10-11T10:18:42.528Z,3.65
2022-10-11T10:19:56.310Z,3.42
2022-10-11T10:21:00.087Z,3.35
2022-10-11T10:22:02.669Z,3.87
2022-10-11T10:23:28.066Z,3.53
2022-10-11T10:24:33.256Z,3.80
2022-10-11T10:25:43.279Z,3.80
2022-10-11T10:27:08.381Z,3.45
2022-10-11T10:28:26.438Z,3.40
2022-10-11T10:29:29.246Z,3.83
2022-10-11T10:30:35.561Z,4.10
2022-10-11T10:32:12.859Z,3.92
2022-10-11T10:33:12.471Z,4.32
2022-10-11T10:34:20.249Z,3.33
2022-10-11T10:35:25.578Z,3.78
2022-10-11T10:36:36.806Z,4.22
2022-10-11T10:37:48.651Z,3.80
2022-10-11T10:39:02.806Z,3.90
2022-10-11T10:40:21.068Z,3.55
2022-10-11T10:41:23.833Z,3.25
2022-10-11T10:42:26.623Z,4.10
2022-10-11T10:43:36.145Z,3.35
2022-10-11T10:44:38.808Z,4.05
2022-10-11T10:45:51.802Z,3.92
2022-10-11T10:47:24.392Z,4.20
2022-10-11T10:49:01.671Z,3.47
2022-10-11T10:50:07.080Z,4.20
2022-10-11T10:51:34.300Z,3.62
2022-10-11T10:52:45.770Z,3.40
2022-10-11T10:54:04.952Z,4.12
2022-10-11T10:55:22.555Z,4.00
2022-10-11T10:56:39.818Z,3.37
2022-10-11T10:58:00.918Z,3.30
2022-10-11T10:59:13.539Z,3.25
2022-10-11T11:00:20.149Z,3.62
2022-10-11T11:01:31.365Z,3.83
2022-10-11T11:02:44.976Z,4.43
2022-10-11T11:04:21.854Z,3.45
2022-10-11T11:05:40.900Z,3.60
2022-10-11T11:06:58.049Z,3.75
2022-10-11T11:08:00.725Z,3.65
2022-10-11T11:09:15.700Z,4.22
2022-10-11T11:10:23.116Z,3.58
2022-10-11T11:11:54.726Z,3.35
2022-10-11T11:13:36.010Z,3.55
2022-10-11T11:15:02.019Z,3.35
2022-10-11T11:16:44.883Z,3.30
2022-10-11T11:17:55.883Z,4.30
2022-10-11T11:19:17.231Z,3.78
2022-10-11T11:20:22.703Z,3.55
2022-10-11T11:21:41.772Z,3.85
2022-10-11T11:23:14.267Z,3.95
2022-10-11T11:24:34.640Z,4.70
2022-10-11T11:26:09.097Z,3.83
2022-10-11T11:27:43.357Z,3.80
2022-10-11T11:29:27.776Z,3.42
2022-10-11T11:30:55.718Z,3.95
2022-10-11T11:32:11.220Z,4.07
2022-10-11T11:33:49.028Z,3.08
2022-10-11T11:35:01.602Z,3.65
2022-10-11T11:36:13.416Z,3.80
2022-10-11T11:37:25.844Z,3.65
2022-10-11T11:38:48.946Z,4.03
2022-10-11T11:39:57.779Z,4.00
2022-10-11T11:41:05.459Z,4.40
2022-10-11T11:42:16.406Z,3.72
2022-10-11T11:43:34.243Z,3.87
2022-10-11T11:44:48.300Z,3.45
2022-10-11T11:45:56.740Z,3.30
2022-10-11T11:47:19.227Z,3.50
2022-10-11T11:48:27.328Z,3.97
2022-10-11T11:49:41.515Z,3.53
2022-10-11T11:50:51.331Z,3.42
2022-10-11T11:51:55.074Z,3.70
2022-10-11T11:53:14.769Z,3.47
2022-10-11T11:54:38.088Z,4.53
2022-10-11T11:55:59.323Z,4.00
2022-10-11T11:57:20.261Z,4.40
2022-10-11T11:58:48.779Z,3.78
2022-10-11T12:00:13.450Z,3.67
2022-10-11T12:01:38.536Z,3.65
2022-10-11T12:02:55.399Z,3.60
2022-10-11T12:04:05.361Z,4.00
2022-10-11T12:05:11.610Z,3.67
2022-10-11T12:06:14.651Z,4.50
2022-10-11T12:07:20.889Z,3.70
2022-10-11T12:08:31.982Z,4.10
2022-10-11T12:09:36.923Z,4.25
2022-10-11T12:10:55.933Z,3.40
2022-10-11T12:12:25.739Z,3.80
2022-10-11T12:13:36.545Z,4.32
2022-10-11T12:14:41.232Z,3.72
2022-10-11T12:16:00.608Z,3.97
2022-10-11T12:17:18.277Z,4.10
2022-10-11T12:18:21.281Z,3.65
2022-10-11T12:19:23.887Z,4.30
2022-10-11T12:20:31.743Z,4.25
2022-10-11T12:21:39.882Z,3.70
2022-10-11T12:22:51.443Z,3.58
2022-10-11T12:23:56.221Z,4.00
2022-10-11T12:25:05.427Z,3.45
2022-10-11T12:26:32.221Z,3.78
2022-10-11T12:27:47.444Z,3.42
2022-10-11T12:28:59.179Z,3.83
2022-10-11T12:30:01.940Z,3.90
2022-10-11T12:31:17.319Z,4.72
2022-10-11T12:32:29.176Z,3.55
2022-10-11T12:33:32.801Z,3.50
2022-10-11T12:34:44.505Z,4.25
2022-10-11T12:35:53.029Z,4.30
2022-10-11T12:36:55.692Z,4.00
2022-10-11T12:38:26.439Z,3.65
2022-10-11T12:39:29.003Z,3.85
2022-10-11T12:40:42.536Z,3.58
2022-10-11T12:41:48.617Z,4.10
2022-10-11T12:43:22.825Z,4.47
2022-10-11T12:44:27.340Z,4.30
2022-10-11T12:45:32.525Z,4.07
2022-10-11T12:47:18.831Z,4.32
2022-10-11T12:48:40.045Z,4.20
2022-10-11T12:50:14.622Z,4.35
2022-10-11T12:51:19.805Z,3.78
2022-10-11T12:52:49.966Z,3.50
2022-10-11T12:54:25.470Z,4.20
2022-10-11T12:55:49.226Z,3.87
2022-10-11T12:57:12.379Z,3.35
2022-10-11T12:58:25.990Z,3.97
2022-10-11T12:59:32.657Z,4.15
2022-10-11T13:01:03.627Z,3.92
2022-10-11T13:02:36.222Z,3.80
2022-10-11T13:03:57.695Z,3.78
2022-10-11T13:05:17.366Z,3.75
2022-10-11T13:06:48.913Z,3.92
2022-10-11T13:07:55.755Z,3.30
2022-10-11T13:09:23.107Z,4.22
2022-10-11T13:10:39.356Z,3.95
2022-10-11T13:11:56.516Z,4.15
2022-10-11T13:13:04.429Z,4.40
2022-10-11T13:14:11.316Z,3.80
2022-10-11T13:15:19.258Z,4.20
2022-10-11T13:16:29.281Z,4.20
2022-10-11T13:17:38.673Z,4.15
2022-10-11T13:18:44.225Z,3.45
2022-10-11T13:19:50.786Z,4.12
2022-10-11T13:20:53.428Z,4.10
2022-10-11T13:22:02.924Z,3.97
2022-10-11T13:23:26.344Z,4.20
2022-10-11T13:24:37.169Z,3.87
2022-10-11T13:25:39.806Z,3.83
2022-10-11T13:26:46.014Z,4.32
2022-10-11T13:27:50.646Z,3.80
2022-10-11T13:28:53.567Z,4.20
2022-10-11T13:30:02.308Z,3.92
2022-10-11T13:31:06.019Z,3.42
2022-10-11T13:32:20.547Z,4.18
2022-10-11T13:33:32.539Z,4.20
2022-10-11T13:34:39.645Z,3.87
2022-10-11T13:35:42.256Z,4.22
2022-10-11T13:36:45.184Z,4.15
2022-10-11T13:37:49.224Z,4.15
2022-10-11T13:39:00.623Z,4.68
2022-10-11T13:40:04.725Z,4.00
2022-10-11T13:41:10.393Z,4.82
2022-10-11T13:42:16.368Z,4.50
2022-10-11T13:43:29.090Z,4.35
2022-10-11T13:44:37.426Z,4.43
2022-10-11T13:45:41.512Z,3.33
2022-10-11T13:46:44.481Z,4.00
2022-10-11T13:47:48.814Z,4.50
2022-10-11T13:49:04.465Z,4.00
2022-10-11T13:50:37.132Z,4.15
2022-10-11T13:51:43.383Z,3.75
2022-10-11T13:52:56.883Z,4.07
2022-10-11T13:54:00.970Z,4.55
2022-10-11T13:55:03.499Z,3.80
2022-10-11T13:56:09.606Z,4.20
2022-10-11T13:57:13.948Z,3.85
2022-10-11T13:58:42.987Z,3.72
2022-10-11T13:59:45.921Z,3.53
2022-10-11T14:00:58.054Z,5.22
2022-10-11T14:02:04.501Z,3.90
2022-10-11T14:03:13.194Z,3.58
2022-10-11T14:04:17.576Z,3.78
2022-10-11T14:05:32.969Z,4.78
2022-10-11T14:06:48.684Z,3.85
2022-10-11T14:07:51.742Z,4.07
2022-10-11T14:08:58.884Z,4.00
2022-10-11T14:10:01.955Z,4.20
2022-10-11T14:11:06.791Z,3.47
2022-10-11T14:12:40.944Z,4.28
2022-10-11T14:13:50.232Z,3.85
2022-10-11T14:14:53.130Z,3.55
2022-10-11T14:16:11.240Z,4.15
2022-10-11T14:17:17.549Z,3.92
2022-10-11T14:18:39.160Z,3.62
2022-10-11T14:19:43.346Z,3.53
2022-10-11T14:20:53.379Z,3.75
2022-10-11T14:21:56.073Z,3.47
2022-10-11T14:22:58.711Z,3.55
2022-10-11T14:24:07.606Z,3.40
2022-10-11T14:25:10.429Z,3.87
2022-10-11T14:26:18.906Z,3.47
2022-10-11T14:27:25.490Z,3.58
2022-10-11T14:28:28.629Z,3.33
2022-10-11T14:29:35.753Z,4.12
2022-10-11T14:30:41.573Z,4.07
2022-10-11T14:31:44.297Z,3.62
2022-10-11T14:32:50.302Z,3.47
2022-10-11T14:33:54.874Z,3.40
2022-10-11T14:34:58.282Z,4.22
2022-10-11T14:36:00.869Z,3.85
2022-10-11T14:37:03.600Z,3.28
2022-10-11T14:38:06.220Z,3.87
2022-10-11T14:39:16.338Z,3.33
2022-10-11T14:40:22.683Z,3.65
2022-10-11T14:41:25.309Z,3.95
2022-10-11T14:42:28.061Z,3.42
2022-10-11T14:43:36.091Z,3.80
2022-10-11T14:44:38.748Z,4.32
2022-10-11T14:45:41.348Z,3.72
2022-10-11T14:46:45.508Z,3.50
2022-10-11T14:47:49.237Z,4.35
2022-10-11T14:48:55.966Z,3.08
2022-10-11T14:50:02.583Z,3.70
2022-10-11T14:51:06.606Z,3.65
2022-10-11T14:52:13.274Z,3.85
2022-10-11T14:53:16.631Z,4.37
2022-10-11T14:54:23.754Z,3.50
2022-10-11T14:55:26.999Z,3.75
2022-10-11T14:56:33.532Z,4.10
2022-10-11T14:57:36.206Z,3.47
2022-10-11T14:58:38.777Z,4.05
2022-10-11T14:59:41.485Z,3.58
2022-10-11T15:00:44.855Z,4.07
2022-10-11T15:01:51.908Z,3.42
2022-10-11T15:02:55.081Z,3.97
2022-10-11T15:03:57.637Z,4.12
2022-10-11T15:05:00.244Z,3.80
2022-10-11T15:06:03.317Z,3.80
2022-10-11T15:07:06.305Z,4.30
2022-10-11T15:08:09.026Z,3.67
2022-10-11T15:09:11.634Z,4.57
2022-10-11T15:10:24.273Z,4.07
2022-10-11T15:11:27.040Z,3.75
2022-10-11T15:12:32.819Z,3.90
2022-10-11T15:13:35.591Z,4.28
2022-10-11T15:14:38.257Z,3.50